sensor_id;sensor_type;location;lat;lon;timestamp;temperature;humidity
70820;DHT22;58439;51.046;13.692;2022-09-09T00:01:33;15.40;73.50
70820;DHT22;58439;51.046;13.692;2022-09-09T00:07:20;15.50;73.10
70820;DHT22;58439;51.046;13.692;2022-09-09T00:12:54;15.50;72.60
70820;DHT22;58439;51.046;13.692;2022-09-09T00:16:07;15.50;72.50
70820;DHT22;58439;51.046;13.692;2022-09-09T00:21:37;15.60;71.90
70820;DHT22;58439;51.046;13.692;2022-09-09T00:27:33;15.70;71.40
70820;DHT22;58439;51.046;13.692;2022-09-09T00:30:18;15.70;71.40
70820;DHT22;58439;51.046;13.692;2022-09-09T00:32:58;15.60;71.40
70820;DHT22;58439;51.046;13.692;2022-09-09T00:35:31;15.50;71.60
70820;DHT22;58439;51.046;13.692;2022-09-09T00:38:12;15.50;71.80
70820;DHT22;58439;51.046;13.692;2022-09-09T00:41:00;15.40;71.90
70820;DHT22;58439;51.046;13.692;2022-09-09T00:43:38;15.40;72.20
70820;DHT22;58439;51.046;13.692;2022-09-09T00:52:12;15.10;72.70
70820;DHT22;58439;51.046;13.692;2022-09-09T00:58:01;15.00;73.50
70820;DHT22;58439;51.046;13.692;2022-09-09T01:00:32;15.00;73.60
70820;DHT22;58439;51.046;13.692;2022-09-09T01:09:26;14.90;74.10
70820;DHT22;58439;51.046;13.692;2022-09-09T01:15:03;14.90;74.30
70820;DHT22;58439;51.046;13.692;2022-09-09T01:18:02;14.90;74.20
70820;DHT22;58439;51.046;13.692;2022-09-09T01:20:53;14.90;74.10
70820;DHT22;58439;51.046;13.692;2022-09-09T01:27:05;14.90;74.20
70820;DHT22;58439;51.046;13.692;2022-09-09T01:29:34;14.90;74.00
70820;DHT22;58439;51.046;13.692;2022-09-09T01:38:34;15.20;72.80
70820;DHT22;58439;51.046;13.692;2022-09-09T01:41:08;15.20;72.40
70820;DHT22;58439;51.046;13.692;2022-09-09T01:43:45;15.30;72.40
70820;DHT22;58439;51.046;13.692;2022-09-09T01:46:16;15.30;72.30
70820;DHT22;58439;51.046;13.692;2022-09-09T01:48:46;15.30;72.20
70820;DHT22;58439;51.046;13.692;2022-09-09T01:51:18;15.30;72.30
70820;DHT22;58439;51.046;13.692;2022-09-09T01:53:47;15.30;72.20
70820;DHT22;58439;51.046;13.692;2022-09-09T02:00:04;15.20;72.10
70820;DHT22;58439;51.046;13.692;2022-09-09T02:08:59;14.90;73.00
70820;DHT22;58439;51.046;13.692;2022-09-09T02:11:31;14.80;74.00
70820;DHT22;58439;51.046;13.692;2022-09-09T02:14:10;14.70;74.50
70820;DHT22;58439;51.046;13.692;2022-09-09T02:16:50;14.50;74.70
70820;DHT22;58439;51.046;13.692;2022-09-09T02:19:37;14.50;75.00
70820;DHT22;58439;51.046;13.692;2022-09-09T02:22:22;14.40;75.50
70820;DHT22;58439;51.046;13.692;2022-09-09T02:24:51;14.30;76.10
70820;DHT22;58439;51.046;13.692;2022-09-09T02:27:26;14.30;76.50
70820;DHT22;58439;51.046;13.692;2022-09-09T02:29:57;14.20;76.60
70820;DHT22;58439;51.046;13.692;2022-09-09T02:32:40;14.20;77.20
70820;DHT22;58439;51.046;13.692;2022-09-09T02:35:15;14.10;77.40
70820;DHT22;58439;51.046;13.692;2022-09-09T02:37:49;14.10;77.60
70820;DHT22;58439;51.046;13.692;2022-09-09T02:40:22;14.00;78.00
70820;DHT22;58439;51.046;13.692;2022-09-09T02:42:57;14.00;78.20
70820;DHT22;58439;51.046;13.692;2022-09-09T02:45:49;14.00;78.70
70820;DHT22;58439;51.046;13.692;2022-09-09T02:48:36;14.00;78.60
70820;DHT22;58439;51.046;13.692;2022-09-09T02:56:50;13.90;79.50
70820;DHT22;58439;51.046;13.692;2022-09-09T02:59:26;13.80;80.20
70820;DHT22;58439;51.046;13.692;2022-09-09T03:01:54;13.80;80.70
70820;DHT22;58439;51.046;13.692;2022-09-09T03:04:22;13.70;80.90
70820;DHT22;58439;51.046;13.692;2022-09-09T03:06:52;13.80;80.80
70820;DHT22;58439;51.046;13.692;2022-09-09T03:13:36;13.70;81.20
70820;DHT22;58439;51.046;13.692;2022-09-09T03:16:05;13.70;81.70
70820;DHT22;58439;51.046;13.692;2022-09-09T03:18:39;13.70;82.60
70820;DHT22;58439;51.046;13.692;2022-09-09T03:25:08;13.80;82.80
70820;DHT22;58439;51.046;13.692;2022-09-09T03:27:38;13.80;82.30
70820;DHT22;58439;51.046;13.692;2022-09-09T03:30:07;13.80;81.80
70820;DHT22;58439;51.046;13.692;2022-09-09T03:33:07;13.80;81.80
70820;DHT22;58439;51.046;13.692;2022-09-09T03:35:35;13.80;81.80
70820;DHT22;58439;51.046;13.692;2022-09-09T03:41:10;13.70;82.00
70820;DHT22;58439;51.046;13.692;2022-09-09T03:43:38;13.70;82.20
70820;DHT22;58439;51.046;13.692;2022-09-09T03:46:06;13.70;82.40
70820;DHT22;58439;51.046;13.692;2022-09-09T03:48:36;13.60;82.80
70820;DHT22;58439;51.046;13.692;2022-09-09T03:51:41;13.70;82.90
70820;DHT22;58439;51.046;13.692;2022-09-09T03:54:12;13.70;83.00
70820;DHT22;58439;51.046;13.692;2022-09-09T03:56:39;13.70;82.80
70820;DHT22;58439;51.046;13.692;2022-09-09T03:59:11;13.70;82.50
70820;DHT22;58439;51.046;13.692;2022-09-09T04:01:38;13.80;82.50
70820;DHT22;58439;51.046;13.692;2022-09-09T04:04:06;13.80;82.30
70820;DHT22;58439;51.046;13.692;2022-09-09T04:06:34;13.80;82.20
70820;DHT22;58439;51.046;13.692;2022-09-09T04:09:03;13.80;82.20
70820;DHT22;58439;51.046;13.692;2022-09-09T04:11:31;13.80;82.40
70820;DHT22;58439;51.046;13.692;2022-09-09T04:13:59;13.80;82.30
70820;DHT22;58439;51.046;13.692;2022-09-09T04:16:29;13.80;82.20
70820;DHT22;58439;51.046;13.692;2022-09-09T04:18:57;13.80;82.20
70820;DHT22;58439;51.046;13.692;2022-09-09T04:21:24;13.90;82.20
70820;DHT22;58439;51.046;13.692;2022-09-09T04:23:52;13.90;82.50
70820;DHT22;58439;51.046;13.692;2022-09-09T04:26:25;13.80;82.70
70820;DHT22;58439;51.046;13.692;2022-09-09T04:28:54;13.90;82.50
70820;DHT22;58439;51.046;13.692;2022-09-09T04:31:23;13.90;82.90
70820;DHT22;58439;51.046;13.692;2022-09-09T04:33:56;13.90;82.60
70820;DHT22;58439;51.046;13.692;2022-09-09T04:36:26;14.00;82.60
70820;DHT22;58439;51.046;13.692;2022-09-09T04:38:58;14.00;82.80
70820;DHT22;58439;51.046;13.692;2022-09-09T04:41:25;14.00;82.40
70820;DHT22;58439;51.046;13.692;2022-09-09T04:43:54;14.00;82.30
70820;DHT22;58439;51.046;13.692;2022-09-09T04:46:22;14.10;82.30
70820;DHT22;58439;51.046;13.692;2022-09-09T04:48:50;14.10;82.30
70820;DHT22;58439;51.046;13.692;2022-09-09T04:51:22;14.10;82.50
70820;DHT22;58439;51.046;13.692;2022-09-09T04:53:51;14.10;82.60
70820;DHT22;58439;51.046;13.692;2022-09-09T04:56:21;14.10;82.50
70820;DHT22;58439;51.046;13.692;2022-09-09T04:58:55;14.10;82.70
70820;DHT22;58439;51.046;13.692;2022-09-09T05:01:32;14.10;82.60
70820;DHT22;58439;51.046;13.692;2022-09-09T05:04:03;14.10;82.70
70820;DHT22;58439;51.046;13.692;2022-09-09T05:06:33;14.20;82.80
70820;DHT22;58439;51.046;13.692;2022-09-09T05:09:04;14.20;83.20
70820;DHT22;58439;51.046;13.692;2022-09-09T05:11:33;14.30;82.70
70820;DHT22;58439;51.046;13.692;2022-09-09T05:14:10;14.30;82.50
70820;DHT22;58439;51.046;13.692;2022-09-09T05:16:41;14.40;82.30
70820;DHT22;58439;51.046;13.692;2022-09-09T05:19:11;14.40;82.00
70820;DHT22;58439;51.046;13.692;2022-09-09T05:21:47;14.50;81.70
70820;DHT22;58439;51.046;13.692;2022-09-09T05:24:18;14.60;82.10
70820;DHT22;58439;51.046;13.692;2022-09-09T05:26:49;14.60;80.90
70820;DHT22;58439;51.046;13.692;2022-09-09T05:29:16;14.60;80.80
70820;DHT22;58439;51.046;13.692;2022-09-09T05:31:46;14.70;80.90
70820;DHT22;58439;51.046;13.692;2022-09-09T05:34:17;14.70;80.60
70820;DHT22;58439;51.046;13.692;2022-09-09T05:36:44;14.70;80.40
70820;DHT22;58439;51.046;13.692;2022-09-09T05:39:18;14.80;80.40
70820;DHT22;58439;51.046;13.692;2022-09-09T05:41:45;14.90;80.30
70820;DHT22;58439;51.046;13.692;2022-09-09T05:44:13;15.00;79.50
70820;DHT22;58439;51.046;13.692;2022-09-09T05:46:40;15.10;79.40
70820;DHT22;58439;51.046;13.692;2022-09-09T05:49:07;15.20;78.70
70820;DHT22;58439;51.046;13.692;2022-09-09T05:51:35;15.20;78.20
70820;DHT22;58439;51.046;13.692;2022-09-09T05:54:07;15.30;78.00
70820;DHT22;58439;51.046;13.692;2022-09-09T05:56:39;15.30;77.80
70820;DHT22;58439;51.046;13.692;2022-09-09T05:59:09;15.30;77.90
70820;DHT22;58439;51.046;13.692;2022-09-09T06:01:38;15.40;77.90
70820;DHT22;58439;51.046;13.692;2022-09-09T06:04:17;15.50;77.50
70820;DHT22;58439;51.046;13.692;2022-09-09T06:06:45;15.50;77.00
70820;DHT22;58439;51.046;13.692;2022-09-09T06:09:18;15.50;76.70
70820;DHT22;58439;51.046;13.692;2022-09-09T06:11:45;15.50;76.70
70820;DHT22;58439;51.046;13.692;2022-09-09T06:14:15;15.60;77.10
70820;DHT22;58439;51.046;13.692;2022-09-09T06:16:51;15.70;76.70
70820;DHT22;58439;51.046;13.692;2022-09-09T06:19:31;15.80;76.00
70820;DHT22;58439;51.046;13.692;2022-09-09T06:22:42;15.80;75.90
70820;DHT22;58439;51.046;13.692;2022-09-09T06:25:19;15.90;75.30
70820;DHT22;58439;51.046;13.692;2022-09-09T06:28:12;15.90;75.30
70820;DHT22;58439;51.046;13.692;2022-09-09T06:34:11;15.90;75.20
70820;DHT22;58439;51.046;13.692;2022-09-09T06:36:43;16.00;75.30
70820;DHT22;58439;51.046;13.692;2022-09-09T06:39:13;16.00;75.30
70820;DHT22;58439;51.046;13.692;2022-09-09T06:41:44;16.00;75.40
70820;DHT22;58439;51.046;13.692;2022-09-09T06:44:30;16.10;75.40
70820;DHT22;58439;51.046;13.692;2022-09-09T06:47:03;16.20;75.30
70820;DHT22;58439;51.046;13.692;2022-09-09T06:49:47;16.20;74.70
70820;DHT22;58439;51.046;13.692;2022-09-09T06:52:29;16.30;74.50
70820;DHT22;58439;51.046;13.692;2022-09-09T06:55:05;16.50;74.30
70820;DHT22;58439;51.046;13.692;2022-09-09T06:57:59;16.50;73.90
70820;DHT22;58439;51.046;13.692;2022-09-09T07:00:50;16.70;73.40
70820;DHT22;58439;51.046;13.692;2022-09-09T07:03:26;16.80;73.10
70820;DHT22;58439;51.046;13.692;2022-09-09T07:06:05;17.00;72.30
70820;DHT22;58439;51.046;13.692;2022-09-09T07:08:55;17.20;72.30
70820;DHT22;58439;51.046;13.692;2022-09-09T07:11:56;17.40;71.50
70820;DHT22;58439;51.046;13.692;2022-09-09T07:14:27;17.60;71.30
70820;DHT22;58439;51.046;13.692;2022-09-09T07:16:58;17.60;70.70
70820;DHT22;58439;51.046;13.692;2022-09-09T07:19:30;17.70;70.70
70820;DHT22;58439;51.046;13.692;2022-09-09T07:21:58;17.80;71.00
70820;DHT22;58439;51.046;13.692;2022-09-09T07:24:26;18.00;70.40
70820;DHT22;58439;51.046;13.692;2022-09-09T07:27:00;18.20;71.00
70820;DHT22;58439;51.046;13.692;2022-09-09T07:29:29;18.50;69.50
70820;DHT22;58439;51.046;13.692;2022-09-09T07:31:56;18.80;68.50
70820;DHT22;58439;51.046;13.692;2022-09-09T07:34:29;19.00;67.80
70820;DHT22;58439;51.046;13.692;2022-09-09T07:36:57;19.10;67.20
70820;DHT22;58439;51.046;13.692;2022-09-09T07:39:25;19.10;67.00
70820;DHT22;58439;51.046;13.692;2022-09-09T07:41:54;19.20;66.80
70820;DHT22;58439;51.046;13.692;2022-09-09T07:44:24;19.30;66.20
70820;DHT22;58439;51.046;13.692;2022-09-09T07:47:02;19.40;66.20
70820;DHT22;58439;51.046;13.692;2022-09-09T07:49:38;19.40;65.80
70820;DHT22;58439;51.046;13.692;2022-09-09T07:52:07;19.50;65.60
70820;DHT22;58439;51.046;13.692;2022-09-09T07:54:48;19.80;65.40
70820;DHT22;58439;51.046;13.692;2022-09-09T07:57:19;20.10;65.10
70820;DHT22;58439;51.046;13.692;2022-09-09T07:59:51;20.40;64.50
70820;DHT22;58439;51.046;13.692;2022-09-09T08:02:19;20.70;63.60
70820;DHT22;58439;51.046;13.692;2022-09-09T08:04:49;20.90;62.90
70820;DHT22;58439;51.046;13.692;2022-09-09T08:07:21;21.00;62.40
70820;DHT22;58439;51.046;13.692;2022-09-09T08:09:52;21.10;62.50
70820;DHT22;58439;51.046;13.692;2022-09-09T08:12:26;21.00;62.60
70820;DHT22;58439;51.046;13.692;2022-09-09T08:14:55;20.80;63.10
70820;DHT22;58439;51.046;13.692;2022-09-09T08:17:27;20.70;63.60
70820;DHT22;58439;51.046;13.692;2022-09-09T08:19:57;20.60;64.30
70820;DHT22;58439;51.046;13.692;2022-09-09T08:22:32;20.60;64.40
70820;DHT22;58439;51.046;13.692;2022-09-09T08:25:01;20.70;64.90
70820;DHT22;58439;51.046;13.692;2022-09-09T08:27:43;20.80;65.70
70820;DHT22;58439;51.046;13.692;2022-09-09T08:30:17;21.00;65.30
70820;DHT22;58439;51.046;13.692;2022-09-09T08:32:48;21.20;64.90
70820;DHT22;58439;51.046;13.692;2022-09-09T08:35:21;21.30;64.40
70820;DHT22;58439;51.046;13.692;2022-09-09T08:37:53;21.40;63.00
70820;DHT22;58439;51.046;13.692;2022-09-09T08:40:29;21.60;62.00
70820;DHT22;58439;51.046;13.692;2022-09-09T08:43:02;21.90;61.30
70820;DHT22;58439;51.046;13.692;2022-09-09T08:45:37;22.00;60.50
70820;DHT22;58439;51.046;13.692;2022-09-09T08:48:29;22.00;58.60
70820;DHT22;58439;51.046;13.692;2022-09-09T08:51:11;22.00;57.40
70820;DHT22;58439;51.046;13.692;2022-09-09T08:53:48;22.00;55.70
70820;DHT22;58439;51.046;13.692;2022-09-09T08:56:21;22.10;55.10
70820;DHT22;58439;51.046;13.692;2022-09-09T08:58:56;22.20;55.20
70820;DHT22;58439;51.046;13.692;2022-09-09T09:02:04;22.30;54.10
70820;DHT22;58439;51.046;13.692;2022-09-09T09:07:45;22.20;52.70
70820;DHT22;58439;51.046;13.692;2022-09-09T09:10:51;22.00;52.90
70820;DHT22;58439;51.046;13.692;2022-09-09T09:20:30;21.70;51.60
70820;DHT22;58439;51.046;13.692;2022-09-09T09:23:29;21.50;52.60
70820;DHT22;58439;51.046;13.692;2022-09-09T09:50:19;21.70;59.40
70820;DHT22;58439;51.046;13.692;2022-09-09T09:57:43;23.30;53.10
70820;DHT22;58439;51.046;13.692;2022-09-09T10:04:44;23.50;50.00
70820;DHT22;58439;51.046;13.692;2022-09-09T10:07:18;23.80;49.80
70820;DHT22;58439;51.046;13.692;2022-09-09T10:09:53;23.90;49.00
70820;DHT22;58439;51.046;13.692;2022-09-09T10:12:50;24.00;48.70
70820;DHT22;58439;51.046;13.692;2022-09-09T10:18:38;24.10;48.70
70820;DHT22;58439;51.046;13.692;2022-09-09T10:26:58;23.60;48.40
70820;DHT22;58439;51.046;13.692;2022-09-09T10:30:12;23.50;49.50
70820;DHT22;58439;51.046;13.692;2022-09-09T10:35:44;23.30;50.90
70820;DHT22;58439;51.046;13.692;2022-09-09T10:38:52;23.20;51.00
70820;DHT22;58439;51.046;13.692;2022-09-09T10:44:56;23.50;52.10
70820;DHT22;58439;51.046;13.692;2022-09-09T10:47:57;24.00;51.90
70820;DHT22;58439;51.046;13.692;2022-09-09T10:56:24;26.10;45.60
70820;DHT22;58439;51.046;13.692;2022-09-09T10:59:17;26.50;44.60
70820;DHT22;58439;51.046;13.692;2022-09-09T11:01:59;26.20;43.80
70820;DHT22;58439;51.046;13.692;2022-09-09T11:07:44;24.60;46.50
70820;DHT22;58439;51.046;13.692;2022-09-09T11:13:03;23.30;50.80
70820;DHT22;58439;51.046;13.692;2022-09-09T11:15:50;23.00;52.10
70820;DHT22;58439;51.046;13.692;2022-09-09T11:18:23;22.90;52.70
70820;DHT22;58439;51.046;13.692;2022-09-09T11:20:57;22.90;52.90
70820;DHT22;58439;51.046;13.692;2022-09-09T11:23:41;22.90;53.30
70820;DHT22;58439;51.046;13.692;2022-09-09T11:26:37;23.00;53.50
70820;DHT22;58439;51.046;13.692;2022-09-09T11:38:25;23.00;54.90
70820;DHT22;58439;51.046;13.692;2022-09-09T11:41:05;23.00;55.70
70820;DHT22;58439;51.046;13.692;2022-09-09T11:43:41;23.00;55.60
70820;DHT22;58439;51.046;13.692;2022-09-09T11:46:10;23.10;55.00
70820;DHT22;58439;51.046;13.692;2022-09-09T11:48:46;23.00;55.40
70820;DHT22;58439;51.046;13.692;2022-09-09T11:51:28;22.90;56.00
70820;DHT22;58439;51.046;13.692;2022-09-09T11:54:01;23.00;55.90
70820;DHT22;58439;51.046;13.692;2022-09-09T11:56:49;23.10;56.00
70820;DHT22;58439;51.046;13.692;2022-09-09T11:59:20;24.60;54.30
70820;DHT22;58439;51.046;13.692;2022-09-09T12:02:02;26.50;48.60
70820;DHT22;58439;51.046;13.692;2022-09-09T12:04:54;27.70;44.70
70820;DHT22;58439;51.046;13.692;2022-09-09T12:07:37;28.00;42.20
70820;DHT22;58439;51.046;13.692;2022-09-09T12:13:18;27.30;42.20
70820;DHT22;58439;51.046;13.692;2022-09-09T12:15:52;26.30;44.40
70820;DHT22;58439;51.046;13.692;2022-09-09T12:18:48;25.50;46.70
70820;DHT22;58439;51.046;13.692;2022-09-09T12:24:37;24.40;49.60
70820;DHT22;58439;51.046;13.692;2022-09-09T12:29:56;23.80;52.40
70820;DHT22;58439;51.046;13.692;2022-09-09T12:32:29;23.60;52.80
70820;DHT22;58439;51.046;13.692;2022-09-09T12:35:02;23.50;53.80
70820;DHT22;58439;51.046;13.692;2022-09-09T12:37:55;24.00;54.00
70820;DHT22;58439;51.046;13.692;2022-09-09T12:40:33;24.90;52.00
70820;DHT22;58439;51.046;13.692;2022-09-09T12:43:22;26.00;48.50
70820;DHT22;58439;51.046;13.692;2022-09-09T12:46:07;26.70;46.90
70820;DHT22;58439;51.046;13.692;2022-09-09T12:48:40;28.00;44.30
70820;DHT22;58439;51.046;13.692;2022-09-09T12:51:29;29.10;42.00
70820;DHT22;58439;51.046;13.692;2022-09-09T12:53:58;29.90;39.10
70820;DHT22;58439;51.046;13.692;2022-09-09T12:56:31;30.40;37.40
70820;DHT22;58439;51.046;13.692;2022-09-09T12:58:59;29.80;36.20
70820;DHT22;58439;51.046;13.692;2022-09-09T13:01:31;29.50;36.80
70820;DHT22;58439;51.046;13.692;2022-09-09T13:04:00;28.80;35.90
70820;DHT22;58439;51.046;13.692;2022-09-09T13:07:06;27.90;37.70
70820;DHT22;58439;51.046;13.692;2022-09-09T13:09:34;27.00;40.00
70820;DHT22;58439;51.046;13.692;2022-09-09T13:12:04;26.50;40.50
70820;DHT22;58439;51.046;13.692;2022-09-09T13:14:35;26.00;41.50
70820;DHT22;58439;51.046;13.692;2022-09-09T13:17:05;25.90;42.10
70820;DHT22;58439;51.046;13.692;2022-09-09T13:19:38;26.00;39.90
70820;DHT22;58439;51.046;13.692;2022-09-09T13:22:29;25.90;39.90
70820;DHT22;58439;51.046;13.692;2022-09-09T13:25:27;25.60;40.60
70820;DHT22;58439;51.046;13.692;2022-09-09T13:28:19;25.40;42.00
70820;DHT22;58439;51.046;13.692;2022-09-09T13:31:22;25.20;43.10
70820;DHT22;58439;51.046;13.692;2022-09-09T13:33:56;25.10;44.00
70820;DHT22;58439;51.046;13.692;2022-09-09T13:36:33;25.10;44.00
70820;DHT22;58439;51.046;13.692;2022-09-09T13:39:03;25.10;44.10
70820;DHT22;58439;51.046;13.692;2022-09-09T13:41:36;25.20;43.50
70820;DHT22;58439;51.046;13.692;2022-09-09T13:44:22;25.40;43.20
70820;DHT22;58439;51.046;13.692;2022-09-09T13:47:04;25.50;42.40
70820;DHT22;58439;51.046;13.692;2022-09-09T13:49:43;25.50;42.10
70820;DHT22;58439;51.046;13.692;2022-09-09T13:52:30;25.40;42.20
70820;DHT22;58439;51.046;13.692;2022-09-09T13:55:05;25.30;42.70
70820;DHT22;58439;51.046;13.692;2022-09-09T13:57:37;25.10;43.30
70820;DHT22;58439;51.046;13.692;2022-09-09T14:00:06;24.90;44.10
70820;DHT22;58439;51.046;13.692;2022-09-09T14:02:38;24.80;45.70
70820;DHT22;58439;51.046;13.692;2022-09-09T14:05:06;24.60;45.40
70820;DHT22;58439;51.046;13.692;2022-09-09T14:07:33;24.50;44.90
70820;DHT22;58439;51.046;13.692;2022-09-09T14:10:00;24.50;44.20
70820;DHT22;58439;51.046;13.692;2022-09-09T14:12:27;24.60;44.50
70820;DHT22;58439;51.046;13.692;2022-09-09T14:14:54;24.60;43.60
70820;DHT22;58439;51.046;13.692;2022-09-09T14:17:21;24.60;43.90
70820;DHT22;58439;51.046;13.692;2022-09-09T14:19:49;24.70;43.90
70820;DHT22;58439;51.046;13.692;2022-09-09T14:22:16;24.80;43.90
70820;DHT22;58439;51.046;13.692;2022-09-09T14:24:43;24.90;43.50
70820;DHT22;58439;51.046;13.692;2022-09-09T14:27:10;25.10;42.40
70820;DHT22;58439;51.046;13.692;2022-09-09T14:29:38;25.30;41.50
70820;DHT22;58439;51.046;13.692;2022-09-09T14:32:05;25.50;41.40
70820;DHT22;58439;51.046;13.692;2022-09-09T14:34:38;25.70;41.00
70820;DHT22;58439;51.046;13.692;2022-09-09T14:37:06;25.90;40.50
70820;DHT22;58439;51.046;13.692;2022-09-09T14:39:33;25.90;40.20
70820;DHT22;58439;51.046;13.692;2022-09-09T14:42:00;26.00;40.10
70820;DHT22;58439;51.046;13.692;2022-09-09T14:44:28;26.00;39.60
70820;DHT22;58439;51.046;13.692;2022-09-09T14:46:55;26.30;39.40
70820;DHT22;58439;51.046;13.692;2022-09-09T14:49:23;27.10;38.50
70820;DHT22;58439;51.046;13.692;2022-09-09T14:51:50;28.10;37.00
70820;DHT22;58439;51.046;13.692;2022-09-09T14:54:17;29.10;34.80
70820;DHT22;58439;51.046;13.692;2022-09-09T14:56:44;29.40;33.60
70820;DHT22;58439;51.046;13.692;2022-09-09T14:59:11;28.80;32.20
70820;DHT22;58439;51.046;13.692;2022-09-09T15:01:40;28.00;33.10
70820;DHT22;58439;51.046;13.692;2022-09-09T15:04:10;27.70;34.70
70820;DHT22;58439;51.046;13.692;2022-09-09T15:06:42;28.50;34.30
70820;DHT22;58439;51.046;13.692;2022-09-09T15:09:12;29.40;30.50
70820;DHT22;58439;51.046;13.692;2022-09-09T15:11:39;29.10;29.80
70820;DHT22;58439;51.046;13.692;2022-09-09T15:14:08;28.60;30.00
70820;DHT22;58439;51.046;13.692;2022-09-09T15:16:36;27.90;30.40
70820;DHT22;58439;51.046;13.692;2022-09-09T15:19:04;27.30;31.30
70820;DHT22;58439;51.046;13.692;2022-09-09T15:21:39;26.90;31.90
70820;DHT22;58439;51.046;13.692;2022-09-09T15:24:06;26.80;32.30
70820;DHT22;58439;51.046;13.692;2022-09-09T15:26:35;26.80;31.80
70820;DHT22;58439;51.046;13.692;2022-09-09T15:29:05;26.90;32.00
70820;DHT22;58439;51.046;13.692;2022-09-09T15:31:32;27.20;31.70
70820;DHT22;58439;51.046;13.692;2022-09-09T15:34:07;27.40;31.20
70820;DHT22;58439;51.046;13.692;2022-09-09T15:36:42;27.50;30.80
70820;DHT22;58439;51.046;13.692;2022-09-09T15:39:14;27.50;30.30
70820;DHT22;58439;51.046;13.692;2022-09-09T15:41:47;27.40;30.70
70820;DHT22;58439;51.046;13.692;2022-09-09T15:44:15;27.50;32.10
70820;DHT22;58439;51.046;13.692;2022-09-09T15:46:45;27.40;31.30
70820;DHT22;58439;51.046;13.692;2022-09-09T15:49:22;27.10;31.40
70820;DHT22;58439;51.046;13.692;2022-09-09T15:51:59;26.80;32.20
70820;DHT22;58439;51.046;13.692;2022-09-09T15:54:35;26.50;32.90
70820;DHT22;58439;51.046;13.692;2022-09-09T15:57:07;26.30;33.60
70820;DHT22;58439;51.046;13.692;2022-09-09T15:59:37;26.10;34.30
70820;DHT22;58439;51.046;13.692;2022-09-09T16:02:04;25.80;34.30
70820;DHT22;58439;51.046;13.692;2022-09-09T16:04:32;25.60;35.40
70820;DHT22;58439;51.046;13.692;2022-09-09T16:07:03;25.20;37.00
70820;DHT22;58439;51.046;13.692;2022-09-09T16:09:32;24.70;38.40
70820;DHT22;58439;51.046;13.692;2022-09-09T16:12:02;24.40;39.90
70820;DHT22;58439;51.046;13.692;2022-09-09T16:14:37;24.20;40.70
70820;DHT22;58439;51.046;13.692;2022-09-09T16:17:05;23.90;41.60
70820;DHT22;58439;51.046;13.692;2022-09-09T16:19:33;23.80;43.00
70820;DHT22;58439;51.046;13.692;2022-09-09T16:22:01;23.70;44.30
70820;DHT22;58439;51.046;13.692;2022-09-09T16:24:29;23.50;46.40
70820;DHT22;58439;51.046;13.692;2022-09-09T16:26:56;23.30;47.30
70820;DHT22;58439;51.046;13.692;2022-09-09T16:29:23;23.10;48.90
70820;DHT22;58439;51.046;13.692;2022-09-09T16:31:54;23.00;50.30
70820;DHT22;58439;51.046;13.692;2022-09-09T16:34:28;22.90;51.30
70820;DHT22;58439;51.046;13.692;2022-09-09T16:36:55;22.80;51.90
70820;DHT22;58439;51.046;13.692;2022-09-09T16:39:22;22.80;51.80
70820;DHT22;58439;51.046;13.692;2022-09-09T16:41:52;22.70;52.60
70820;DHT22;58439;51.046;13.692;2022-09-09T16:44:19;22.70;52.80
70820;DHT22;58439;51.046;13.692;2022-09-09T16:46:47;22.80;53.00
70820;DHT22;58439;51.046;13.692;2022-09-09T16:49:25;22.90;52.80
70820;DHT22;58439;51.046;13.692;2022-09-09T16:51:57;22.90;52.50
70820;DHT22;58439;51.046;13.692;2022-09-09T16:54:27;23.00;52.30
70820;DHT22;58439;51.046;13.692;2022-09-09T16:56:55;23.00;52.70
70820;DHT22;58439;51.046;13.692;2022-09-09T16:59:23;23.00;51.50
70820;DHT22;58439;51.046;13.692;2022-09-09T17:01:51;22.90;51.10
70820;DHT22;58439;51.046;13.692;2022-09-09T17:04:25;22.90;50.70
70820;DHT22;58439;51.046;13.692;2022-09-09T17:06:54;22.80;49.30
70820;DHT22;58439;51.046;13.692;2022-09-09T17:09:25;22.70;49.30
70820;DHT22;58439;51.046;13.692;2022-09-09T17:11:55;22.60;48.60
70820;DHT22;58439;51.046;13.692;2022-09-09T17:14:23;22.50;48.20
70820;DHT22;58439;51.046;13.692;2022-09-09T17:16:51;22.30;48.10
70820;DHT22;58439;51.046;13.692;2022-09-09T17:19:38;22.20;46.20
70820;DHT22;58439;51.046;13.692;2022-09-09T17:22:06;22.10;45.40
70820;DHT22;58439;51.046;13.692;2022-09-09T17:24:49;22.00;45.20
70820;DHT22;58439;51.046;13.692;2022-09-09T17:27:16;21.90;45.90
70820;DHT22;58439;51.046;13.692;2022-09-09T17:29:43;21.80;45.70
70820;DHT22;58439;51.046;13.692;2022-09-09T17:32:10;21.70;44.90
70820;DHT22;58439;51.046;13.692;2022-09-09T17:34:36;21.60;44.60
70820;DHT22;58439;51.046;13.692;2022-09-09T17:37:04;21.50;44.70
70820;DHT22;58439;51.046;13.692;2022-09-09T17:39:32;21.40;44.90
70820;DHT22;58439;51.046;13.692;2022-09-09T17:42:00;21.30;45.10
70820;DHT22;58439;51.046;13.692;2022-09-09T17:44:27;21.10;45.20
70820;DHT22;58439;51.046;13.692;2022-09-09T17:46:55;21.00;45.30
70820;DHT22;58439;51.046;13.692;2022-09-09T17:49:22;21.00;46.20
70820;DHT22;58439;51.046;13.692;2022-09-09T17:51:49;20.90;46.70
70820;DHT22;58439;51.046;13.692;2022-09-09T17:54:18;20.70;46.90
70820;DHT22;58439;51.046;13.692;2022-09-09T17:56:47;20.60;48.10
70820;DHT22;58439;51.046;13.692;2022-09-09T17:59:20;20.50;49.00
70820;DHT22;58439;51.046;13.692;2022-09-09T18:01:48;20.40;49.30
70820;DHT22;58439;51.046;13.692;2022-09-09T18:04:29;20.40;49.30
70820;DHT22;58439;51.046;13.692;2022-09-09T18:06:58;20.30;49.10
70820;DHT22;58439;51.046;13.692;2022-09-09T18:09:29;20.20;49.20
70820;DHT22;58439;51.046;13.692;2022-09-09T18:11:57;20.20;49.30
70820;DHT22;58439;51.046;13.692;2022-09-09T18:14:28;20.20;49.60
70820;DHT22;58439;51.046;13.692;2022-09-09T18:16:58;20.10;50.00
70820;DHT22;58439;51.046;13.692;2022-09-09T18:19:28;20.10;50.00
70820;DHT22;58439;51.046;13.692;2022-09-09T18:21:59;20.00;50.20
70820;DHT22;58439;51.046;13.692;2022-09-09T18:24:29;20.00;50.50
70820;DHT22;58439;51.046;13.692;2022-09-09T18:26:56;19.90;50.50
70820;DHT22;58439;51.046;13.692;2022-09-09T18:29:24;19.90;50.50
70820;DHT22;58439;51.046;13.692;2022-09-09T18:31:53;19.80;50.40
70820;DHT22;58439;51.046;13.692;2022-09-09T18:34:22;19.80;50.40
70820;DHT22;58439;51.046;13.692;2022-09-09T18:36:53;19.70;50.30
70820;DHT22;58439;51.046;13.692;2022-09-09T18:39:25;19.70;50.40